createdAt,value
2022-12-15T00:00:42.031Z,21.95
2022-12-15T00:03:44.114Z,21.23
2022-12-15T00:06:46.150Z,21.70
2022-12-15T00:09:48.104Z,23.58
2022-12-15T00:12:50.039Z,23.75
2022-12-15T00:15:53.323Z,23.20
2022-12-15T00:18:55.426Z,23.13
2022-12-15T00:21:57.385Z,24.23
2022-12-15T00:24:59.315Z,24.52
2022-12-15T00:28:01.295Z,25.50
2022-12-15T00:31:04.956Z,25.00
2022-12-15T00:34:07.100Z,24.15
2022-12-15T00:37:08.998Z,23.73
2022-12-15T00:40:12.348Z,22.08
2022-12-15T00:43:16.485Z,21.17
2022-12-15T00:46:19.859Z,22.63
2022-12-15T00:49:22.168Z,21.80
2022-12-15T00:52:24.031Z,22.73
2022-12-15T00:55:25.939Z,20.92
2022-12-15T00:58:27.796Z,22.90
2022-12-15T01:01:31.241Z,23.90
2022-12-15T01:04:33.390Z,23.30
2022-12-15T01:07:38.096Z,25.95
2022-12-15T01:10:40.070Z,26.88
2022-12-15T01:13:41.959Z,25.58
2022-12-15T01:16:51.279Z,27.48
2022-12-15T01:19:53.219Z,28.50
2022-12-15T01:22:56.158Z,30.05
2022-12-15T01:25:58.307Z,32.78
2022-12-15T01:29:00.181Z,32.05
2022-12-15T01:32:03.572Z,34.33
2022-12-15T01:35:07.095Z,32.47
2022-12-15T01:38:09.629Z,33.50
2022-12-15T01:41:12.073Z,32.25
2022-12-15T01:44:17.007Z,28.50
2022-12-15T01:47:24.257Z,27.40
2022-12-15T01:50:29.783Z,30.30
2022-12-15T01:53:35.252Z,30.88
2022-12-15T01:56:41.918Z,28.23
2022-12-15T01:59:49.541Z,32.08
2022-12-15T02:02:53.851Z,29.30
2022-12-15T02:05:57.904Z,30.83
2022-12-15T02:09:01.487Z,30.48
2022-12-15T02:12:15.352Z,30.27
2022-12-15T02:15:20.931Z,33.63
2022-12-15T02:18:32.544Z,32.38
2022-12-15T02:21:41.243Z,30.67
2022-12-15T02:25:06.435Z,27.20
2022-12-15T02:28:13.527Z,28.70
2022-12-15T02:31:25.162Z,28.63
2022-12-15T02:34:35.332Z,27.80
2022-12-15T02:37:39.342Z,28.40
2022-12-15T02:40:41.327Z,27.02
2022-12-15T02:43:43.337Z,26.25
2022-12-15T02:46:58.561Z,27.52
2022-12-15T02:50:21.805Z,26.27
2022-12-15T02:53:40.704Z,27.05
2022-12-15T02:56:46.872Z,27.13
2022-12-15T02:59:56.867Z,27.92
2022-12-15T03:03:00.642Z,25.98
2022-12-15T03:06:03.272Z,32.08
2022-12-15T03:09:05.240Z,27.45
2022-12-15T03:12:08.028Z,23.08
2022-12-15T03:15:10.867Z,25.10
2022-12-15T03:18:14.897Z,24.23
2022-12-15T03:21:16.811Z,23.10
2022-12-15T03:24:19.200Z,23.20
2022-12-15T03:27:21.094Z,23.38
2022-12-15T03:30:23.010Z,23.58
2022-12-15T03:33:26.429Z,21.92
2022-12-15T03:36:28.378Z,21.65
2022-12-15T03:39:30.294Z,22.63
2022-12-15T03:42:34.099Z,23.20
2022-12-15T03:45:36.112Z,21.90
2022-12-15T03:48:39.445Z,20.38
2022-12-15T03:51:41.291Z,21.45
2022-12-15T03:54:43.198Z,24.08
2022-12-15T03:57:46.965Z,23.65
2022-12-15T04:00:48.968Z,23.02
2022-12-15T04:03:56.966Z,24.33
2022-12-15T04:07:02.145Z,25.33
2022-12-15T04:10:05.763Z,26.40
2022-12-15T04:13:11.618Z,24.00
2022-12-15T04:16:19.361Z,26.75
2022-12-15T04:19:23.450Z,29.33
2022-12-15T04:22:25.346Z,29.80
2022-12-15T04:25:28.015Z,31.98
2022-12-15T04:28:31.954Z,31.65
2022-12-15T04:31:34.279Z,37.00
2022-12-15T04:34:37.581Z,35.67
2022-12-15T04:37:39.530Z,36.63
2022-12-15T04:40:41.480Z,37.33
2022-12-15T04:43:43.895Z,37.20
2022-12-15T04:46:45.868Z,40.85
2022-12-15T04:49:49.116Z,38.45
2022-12-15T04:52:51.606Z,37.47
2022-12-15T04:55:55.582Z,36.58
2022-12-15T04:58:58.012Z,38.60
2022-12-15T05:02:02.204Z,41.55
2022-12-15T05:05:06.151Z,36.90
2022-12-15T05:08:08.177Z,37.92
2022-12-15T05:11:10.119Z,39.45
2022-12-15T05:14:12.067Z,41.80
2022-12-15T05:17:13.975Z,44.03
2022-12-15T05:20:17.806Z,42.95
2022-12-15T05:23:19.691Z,49.13
2022-12-15T05:26:21.698Z,45.22
2022-12-15T05:29:23.654Z,46.00
2022-12-15T05:32:25.682Z,47.63
2022-12-15T05:35:28.976Z,45.95
2022-12-15T05:38:30.896Z,47.63
2022-12-15T05:41:32.870Z,44.95
2022-12-15T05:44:34.831Z,46.95
2022-12-15T05:47:36.756Z,47.08
2022-12-15T05:50:40.305Z,44.80
2022-12-15T05:53:42.694Z,43.30
2022-12-15T05:56:44.709Z,44.42
2022-12-15T05:59:46.612Z,46.38
2022-12-15T06:02:50.625Z,47.42
2022-12-15T06:05:56.567Z,49.22
2022-12-15T06:08:59.630Z,49.28
2022-12-15T06:12:01.493Z,51.75
2022-12-15T06:15:03.946Z,47.60
2022-12-15T06:18:05.938Z,46.75
2022-12-15T06:21:11.249Z,48.17
2022-12-15T06:24:13.527Z,49.75
2022-12-15T06:27:15.456Z,69.55
2022-12-15T06:30:17.436Z,46.67
2022-12-15T06:33:19.749Z,49.22
2022-12-15T06:36:23.346Z,49.75
2022-12-15T06:39:25.437Z,52.58
2022-12-15T06:42:27.438Z,52.72
2022-12-15T06:45:32.145Z,53.03
2022-12-15T06:48:34.051Z,53.17
2022-12-15T06:51:38.451Z,52.40
2022-12-15T06:54:40.371Z,48.35
2022-12-15T06:57:45.088Z,47.15
2022-12-15T07:00:49.940Z,47.92
2022-12-15T07:03:52.269Z,44.22
2022-12-15T07:06:55.752Z,49.33
2022-12-15T07:09:57.651Z,51.25
2022-12-15T07:12:59.546Z,47.47
2022-12-15T07:16:02.243Z,49.22
2022-12-15T07:19:04.246Z,47.85
2022-12-15T07:22:07.551Z,47.13
2022-12-15T07:25:09.886Z,47.78
2022-12-15T07:28:11.761Z,50.88
2022-12-15T07:31:13.712Z,58.70
2022-12-15T07:34:15.653Z,63.22
2022-12-15T07:37:26.047Z,55.45
2022-12-15T07:40:28.027Z,51.15
2022-12-15T07:43:30.568Z,50.95
2022-12-15T07:46:33.012Z,52.70
2022-12-15T07:49:36.166Z,54.80
2022-12-15T07:52:39.458Z,59.63
2022-12-15T07:56:05.531Z,58.08
2022-12-15T07:59:03.401Z,58.15
2022-12-15T08:02:05.529Z,56.92
2022-12-15T08:05:08.565Z,56.20
2022-12-15T08:08:15.336Z,55.90
2022-12-15T08:11:19.061Z,54.67
2022-12-15T08:14:21.428Z,59.20
2022-12-15T08:17:23.664Z,54.85
2022-12-15T08:20:25.585Z,53.40
2022-12-15T08:23:29.283Z,54.53
2022-12-15T08:26:31.783Z,52.13
2022-12-15T08:29:50.810Z,50.70
2022-12-15T08:32:53.566Z,56.42
2022-12-15T08:35:59.909Z,51.50
2022-12-15T08:39:03.562Z,58.88
2022-12-15T08:42:05.558Z,49.05
2022-12-15T08:45:08.592Z,55.95
2022-12-15T08:48:12.323Z,53.50
2022-12-15T08:51:15.026Z,56.38
2022-12-15T08:54:19.072Z,55.08
2022-12-15T08:57:21.028Z,51.30
2022-12-15T09:00:23.094Z,52.75
2022-12-15T09:03:26.120Z,55.97
2022-12-15T09:06:30.925Z,51.08
2022-12-15T09:09:34.272Z,53.28
2022-12-15T09:12:36.147Z,53.55
2022-12-15T09:16:07.562Z,54.35
2022-12-15T09:19:00.353Z,51.53
2022-12-15T09:22:02.458Z,50.70
2022-12-15T09:25:06.564Z,52.08
2022-12-15T09:28:08.617Z,53.08
2022-12-15T09:31:13.907Z,53.63
2022-12-15T09:34:16.181Z,55.38
2022-12-15T09:37:18.061Z,58.13
2022-12-15T09:40:22.033Z,57.13
2022-12-15T09:43:46.416Z,54.95
2022-12-15T09:47:01.625Z,58.20
2022-12-15T09:50:09.656Z,51.95
2022-12-15T09:56:49.933Z,53.58
2022-12-15T10:00:10.193Z,50.13
2022-12-15T10:03:43.792Z,53.25
2022-12-15T10:06:51.810Z,57.70
2022-12-15T10:09:54.634Z,54.90
2022-12-15T10:13:10.293Z,56.63
2022-12-15T10:16:21.228Z,54.38
2022-12-15T10:19:31.477Z,54.00
2022-12-15T10:22:36.283Z,58.55
2022-12-15T10:25:38.664Z,54.95
2022-12-15T10:28:59.642Z,56.30
2022-12-15T10:32:05.137Z,53.75
2022-12-15T10:35:13.334Z,55.20
2022-12-15T10:38:24.185Z,55.20
2022-12-15T10:41:26.401Z,54.88
2022-12-15T10:44:37.269Z,54.17
2022-12-15T10:47:39.154Z,58.58
2022-12-15T10:50:41.115Z,54.88
2022-12-15T10:53:50.348Z,56.65
2022-12-15T10:56:54.495Z,57.00
2022-12-15T11:00:25.663Z,54.90
2022-12-15T11:03:27.774Z,55.75
2022-12-15T11:06:31.773Z,57.10
2022-12-15T11:09:35.617Z,54.40
2022-12-15T11:12:37.690Z,49.53
2022-12-15T11:15:47.162Z,49.22
2022-12-15T11:18:58.064Z,50.08
2022-12-15T11:22:04.838Z,42.00
2022-12-15T11:25:20.384Z,44.28
2022-12-15T11:28:28.847Z,42.75
2022-12-15T11:31:37.508Z,45.72
2022-12-15T11:34:44.492Z,46.58
2022-12-15T11:37:52.643Z,44.05
2022-12-15T11:40:56.913Z,49.67
2022-12-15T11:44:18.582Z,45.78
2022-12-15T11:47:34.019Z,44.78
2022-12-15T11:50:42.762Z,48.28
2022-12-15T11:54:00.189Z,46.47
2022-12-15T11:57:16.622Z,47.22
2022-12-15T12:00:20.156Z,48.10
2022-12-15T12:03:34.898Z,45.28
2022-12-15T12:06:48.081Z,45.83
2022-12-15T12:10:02.971Z,44.10
2022-12-15T12:13:14.127Z,43.08
2022-12-15T12:16:28.974Z,40.83
2022-12-15T12:19:37.614Z,36.97
2022-12-15T12:22:49.572Z,40.55
2022-12-15T12:26:03.130Z,40.25
2022-12-15T12:29:14.533Z,40.60
2022-12-15T12:32:25.210Z,41.15
2022-12-15T12:35:36.831Z,35.20
2022-12-15T12:38:42.173Z,35.10
2022-12-15T12:41:50.615Z,34.03
2022-12-15T12:44:54.369Z,33.75
2022-12-15T12:48:00.665Z,34.22
2022-12-15T12:51:21.705Z,33.67
2022-12-15T12:54:50.291Z,38.03
2022-12-15T12:57:53.458Z,43.25
2022-12-15T13:01:06.159Z,37.70
2022-12-15T13:04:11.129Z,38.33
2022-12-15T13:10:43.668Z,41.53
2022-12-15T13:13:51.313Z,40.63
2022-12-15T13:17:25.022Z,41.63
2022-12-15T13:20:23.104Z,46.03
2022-12-15T13:23:37.438Z,41.80
2022-12-15T13:26:44.746Z,45.20
2022-12-15T13:29:58.471Z,43.10
2022-12-15T13:33:16.593Z,44.97
2022-12-15T13:37:02.976Z,63.70
2022-12-15T13:40:26.206Z,50.40
2022-12-15T13:43:46.472Z,53.97
2022-12-15T13:46:53.031Z,49.13
2022-12-15T13:50:01.818Z,49.25
2022-12-15T13:53:23.125Z,51.08
2022-12-15T13:56:54.771Z,52.85
2022-12-15T14:00:02.129Z,56.08
2022-12-15T14:03:05.402Z,58.22
2022-12-15T14:06:13.523Z,61.17
2022-12-15T14:09:20.079Z,65.07
2022-12-15T14:12:23.230Z,60.60
2022-12-15T14:15:30.004Z,63.42
2022-12-15T14:18:34.140Z,63.08
2022-12-15T14:21:36.042Z,66.80
2022-12-15T14:24:47.045Z,71.43
2022-12-15T14:27:51.531Z,65.65
2022-12-15T14:30:58.240Z,67.32
2022-12-15T14:34:03.762Z,68.80
2022-12-15T14:37:10.717Z,64.28
2022-12-15T14:40:15.885Z,64.90
2022-12-15T14:43:21.064Z,67.53
2022-12-15T14:46:27.131Z,66.22
2022-12-15T14:49:38.963Z,68.68
2022-12-15T14:52:43.513Z,67.68
2022-12-15T14:55:45.773Z,69.38
2022-12-15T14:58:48.430Z,63.72
2022-12-15T15:01:58.702Z,65.88
2022-12-15T15:05:05.094Z,63.42
2022-12-15T15:08:13.217Z,56.10
2022-12-15T15:11:25.841Z,57.83
2022-12-15T15:14:32.678Z,60.92
2022-12-15T15:17:38.705Z,63.22
2022-12-15T15:20:55.502Z,57.38
2022-12-15T15:23:58.898Z,60.35
2022-12-15T15:27:25.336Z,66.65
2022-12-15T15:30:27.450Z,60.33
2022-12-15T15:33:31.036Z,64.22
2022-12-15T15:36:34.897Z,63.47
2022-12-15T15:39:36.798Z,66.32
2022-12-15T15:42:38.708Z,65.63
2022-12-15T15:45:43.741Z,69.40
2022-12-15T15:48:50.541Z,80.28
2022-12-15T15:51:54.852Z,76.15
2022-12-15T15:54:56.829Z,71.63
2022-12-15T15:58:01.573Z,77.45
2022-12-15T16:01:09.549Z,77.68
2022-12-15T16:04:16.110Z,73.25
2022-12-15T16:07:23.100Z,69.55
2022-12-15T16:10:25.996Z,69.85
2022-12-15T16:13:28.121Z,70.38
2022-12-15T16:16:32.020Z,74.28
2022-12-15T16:19:39.742Z,67.35
2022-12-15T16:22:44.223Z,84.43
2022-12-15T16:25:50.940Z,68.35
2022-12-15T16:28:53.158Z,72.10
2022-12-15T16:31:55.343Z,62.47
2022-12-15T16:34:58.676Z,62.42
2022-12-15T16:38:00.736Z,57.22
2022-12-15T16:41:06.678Z,61.70
2022-12-15T16:44:12.513Z,57.35
2022-12-15T16:47:17.247Z,56.90
2022-12-15T16:50:24.921Z,54.70
2022-12-15T16:53:30.687Z,56.45
2022-12-15T16:56:33.281Z,56.92
2022-12-15T16:59:36.256Z,62.90
2022-12-15T17:02:38.519Z,59.28
2022-12-15T17:05:44.686Z,55.00
2022-12-15T17:08:51.861Z,55.03
2022-12-15T17:11:57.817Z,59.97
2022-12-15T17:14:59.848Z,54.22
2022-12-15T17:18:01.699Z,61.33
2022-12-15T17:21:08.276Z,53.22
2022-12-15T17:24:16.678Z,55.70
2022-12-15T17:27:25.056Z,41.10
2022-12-15T17:30:27.550Z,58.50
2022-12-15T17:33:31.503Z,51.33
2022-12-15T17:36:35.045Z,47.55
2022-12-15T17:39:37.534Z,55.85
2022-12-15T17:42:39.913Z,55.40
2022-12-15T17:45:42.471Z,53.55
2022-12-15T17:48:46.184Z,55.83
2022-12-15T17:51:50.907Z,56.28
2022-12-15T17:54:53.197Z,63.33
2022-12-15T17:57:56.233Z,59.63
2022-12-15T18:00:59.052Z,61.40
2022-12-15T18:04:02.893Z,62.13
2022-12-15T18:07:14.144Z,62.00
2022-12-15T18:10:28.968Z,59.33
2022-12-15T18:13:35.557Z,64.45
2022-12-15T18:16:38.806Z,63.78
2022-12-15T18:19:41.598Z,66.57
2022-12-15T18:22:46.061Z,62.50
2022-12-15T18:25:48.846Z,60.80
2022-12-15T18:28:51.404Z,64.47
2022-12-15T18:31:53.474Z,61.70
2022-12-15T18:34:56.741Z,62.42
2022-12-15T18:38:00.469Z,64.07
2022-12-15T18:41:03.758Z,61.95
2022-12-15T18:44:06.588Z,62.00
2022-12-15T18:47:15.741Z,62.17
2022-12-15T18:50:20.907Z,70.57
2022-12-15T18:53:29.333Z,66.47
2022-12-15T18:56:32.539Z,66.22
2022-12-15T18:59:35.007Z,68.78
2022-12-15T19:02:37.810Z,62.97
2022-12-15T19:05:43.689Z,64.97
2022-12-15T19:08:48.686Z,66.65
2022-12-15T19:11:51.255Z,66.28
2022-12-15T19:14:55.237Z,70.25
2022-12-15T19:17:57.648Z,65.70
2022-12-15T19:21:10.482Z,69.53
2022-12-15T19:24:18.180Z,73.82
2022-12-15T19:27:25.730Z,71.07
2022-12-15T19:30:30.607Z,75.38
2022-12-15T19:33:36.223Z,77.30
2022-12-15T19:36:39.316Z,79.47
2022-12-15T19:39:43.441Z,80.40
2022-12-15T19:42:49.482Z,82.68
2022-12-15T19:45:52.803Z,85.95
2022-12-15T19:48:56.856Z,81.10
2022-12-15T19:51:59.592Z,87.18
2022-12-15T19:55:03.774Z,83.22
2022-12-15T19:58:16.862Z,82.45
2022-12-15T20:01:20.101Z,80.00
2022-12-15T20:04:24.382Z,82.50
2022-12-15T20:07:30.633Z,86.75
2022-12-15T20:10:34.999Z,83.55
2022-12-15T20:13:37.482Z,83.50
2022-12-15T20:16:40.901Z,85.90
2022-12-15T20:19:44.048Z,80.80
2022-12-15T20:22:50.156Z,80.28
2022-12-15T20:25:55.085Z,82.10
2022-12-15T20:29:12.055Z,81.45
2022-12-15T20:32:17.554Z,93.30
2022-12-15T20:35:22.226Z,87.72
2022-12-15T20:38:28.616Z,85.18
2022-12-15T20:41:32.856Z,77.10
2022-12-15T20:44:34.814Z,75.97
2022-12-15T20:47:43.317Z,76.88
2022-12-15T20:50:47.694Z,72.47
2022-12-15T20:53:50.487Z,72.25
2022-12-15T20:56:54.829Z,76.35
2022-12-15T20:59:57.177Z,73.45
2022-12-15T21:03:00.713Z,69.50
2022-12-15T21:06:03.164Z,70.55
2022-12-15T21:09:10.809Z,69.60
2022-12-15T21:12:19.562Z,71.03
2022-12-15T21:15:25.364Z,69.35
2022-12-15T21:19:10.981Z,73.00
2022-12-15T21:21:55.312Z,64.20
2022-12-15T21:24:58.606Z,69.38
2022-12-15T21:28:01.895Z,68.97
2022-12-15T21:31:03.903Z,71.20
2022-12-15T21:34:06.027Z,73.18
2022-12-15T21:37:20.666Z,70.45
2022-12-15T21:40:25.789Z,80.20
2022-12-15T21:43:31.404Z,79.90
2022-12-15T21:46:33.401Z,78.50
2022-12-15T21:49:35.334Z,76.18
2022-12-15T21:52:37.390Z,77.50
2022-12-15T21:55:39.411Z,84.65
2022-12-15T21:58:42.940Z,80.82
2022-12-15T22:01:45.445Z,80.32
2022-12-15T22:04:47.442Z,85.15
2022-12-15T22:07:49.895Z,91.78
2022-12-15T22:10:52.237Z,107.30
2022-12-15T22:13:57.081Z,102.82
2022-12-15T22:17:00.167Z,93.13
2022-12-15T22:20:02.071Z,90.75
2022-12-15T22:23:04.034Z,132.75
2022-12-15T22:26:06.061Z,98.28
2022-12-15T22:29:13.924Z,117.70
2022-12-15T22:32:17.170Z,136.43
2022-12-15T22:35:21.838Z,101.88
2022-12-15T22:38:24.296Z,96.47
2022-12-15T22:41:26.242Z,124.85
2022-12-15T22:44:31.842Z,133.50
2022-12-15T22:47:36.340Z,101.70
2022-12-15T22:50:39.080Z,96.32
2022-12-15T22:53:41.334Z,107.95
2022-12-15T22:56:43.465Z,133.77
2022-12-15T22:59:53.571Z,113.57
2022-12-15T23:06:05.887Z,101.10
2022-12-15T23:09:10.078Z,128.32
2022-12-15T23:12:11.967Z,105.68
2022-12-15T23:15:19.854Z,133.00
2022-12-15T23:18:23.483Z,108.50
2022-12-15T23:21:28.076Z,86.43
2022-12-15T23:24:31.581Z,96.65
2022-12-15T23:27:33.707Z,94.85
2022-12-15T23:30:37.012Z,106.18
2022-12-15T23:33:38.918Z,150.38
2022-12-15T23:36:40.827Z,125.90
2022-12-15T23:39:42.732Z,107.10
2022-12-15T23:42:44.610Z,79.05
2022-12-15T23:45:55.957Z,96.93
2022-12-15T23:48:58.328Z,88.70
2022-12-15T23:52:00.197Z,86.00
2022-12-15T23:55:03.974Z,81.22
2022-12-15T23:58:05.923Z,76.00
